createdAt,value
2018-06-02T00:01:46.594Z,99.90
2018-06-02T00:04:14.112Z,99.90
2018-06-02T00:06:41.604Z,99.90
2018-06-02T00:09:09.120Z,99.90
2018-06-02T00:11:36.627Z,99.90
2018-06-02T00:14:04.156Z,99.90
2018-06-02T00:16:31.648Z,99.90
2018-06-02T00:18:59.167Z,99.90
2018-06-02T00:21:26.659Z,99.90
2018-06-02T00:23:54.156Z,99.90
2018-06-02T00:26:22.440Z,99.90
2018-06-02T00:28:49.949Z,99.90
2018-06-02T00:31:17.468Z,99.90
2018-06-02T00:33:44.964Z,99.90
2018-06-02T00:36:13.244Z,99.90
2018-06-02T00:38:40.741Z,99.90
2018-06-02T00:41:09.024Z,99.90
2018-06-02T00:43:36.522Z,99.90
2018-06-02T00:46:04.784Z,99.90
2018-06-02T00:48:32.300Z,99.90
2018-06-02T00:50:59.792Z,99.90
2018-06-02T00:53:27.305Z,99.90
2018-06-02T00:55:54.798Z,99.90
2018-06-02T00:58:22.320Z,99.90
2018-06-02T01:00:49.813Z,99.90
2018-06-02T01:03:17.328Z,99.90
2018-06-02T01:05:44.819Z,99.90
2018-06-02T01:08:12.312Z,99.90
2018-06-02T01:10:39.833Z,99.90
2018-06-02T01:13:07.328Z,99.90
2018-06-02T01:15:34.846Z,99.90
2018-06-02T01:18:02.344Z,99.90
2018-06-02T01:20:29.860Z,99.90
2018-06-02T01:22:57.367Z,99.90
2018-06-02T01:25:25.629Z,99.90
2018-06-02T01:27:53.152Z,99.90
2018-06-02T01:30:20.644Z,99.90
2018-06-02T01:32:48.161Z,99.90
2018-06-02T01:35:15.655Z,99.90
2018-06-02T01:37:43.173Z,99.90
2018-06-02T01:40:10.673Z,99.90
2018-06-02T01:42:39.808Z,99.90
2018-06-02T01:45:08.073Z,99.90
2018-06-02T01:47:36.352Z,99.90
2018-06-02T01:50:04.616Z,99.90
2018-06-02T01:52:32.132Z,99.90
2018-06-02T01:54:59.636Z,99.90
2018-06-02T01:57:27.905Z,99.90
2018-06-02T01:59:55.420Z,99.90
2018-06-02T02:02:22.918Z,99.90
2018-06-02T02:04:50.432Z,99.90
2018-06-02T02:07:17.927Z,99.90
2018-06-02T02:09:45.441Z,99.90
2018-06-02T02:12:12.937Z,99.90
2018-06-02T02:14:40.461Z,99.90
2018-06-02T02:17:07.956Z,99.90
2018-06-02T02:19:35.473Z,99.90
2018-06-02T02:22:02.965Z,99.90
2018-06-02T02:24:30.458Z,99.90
2018-06-02T02:26:58.739Z,99.90
2018-06-02T02:29:26.991Z,99.90
2018-06-02T02:31:54.503Z,99.90
2018-06-02T02:34:21.999Z,99.90
2018-06-02T02:36:49.508Z,99.90
2018-06-02T02:39:16.995Z,99.90
2018-06-02T02:41:44.508Z,99.90
2018-06-02T02:44:12.766Z,99.90
2018-06-02T02:46:40.287Z,99.90
2018-06-02T02:49:07.771Z,99.90
2018-06-02T02:51:35.269Z,99.90
2018-06-02T02:54:03.547Z,99.90
2018-06-02T02:56:31.799Z,99.90
2018-06-02T02:58:59.307Z,99.90
2018-06-02T03:01:26.791Z,99.90
2018-06-02T03:03:54.299Z,99.90
2018-06-02T03:06:21.800Z,99.90
2018-06-02T03:08:49.314Z,99.90
2018-06-02T03:11:17.572Z,99.90
2018-06-02T03:13:45.827Z,99.90
2018-06-02T03:16:13.344Z,99.90
2018-06-02T03:18:40.831Z,99.90
2018-06-02T03:21:08.343Z,99.90
2018-06-02T03:23:36.600Z,99.90
2018-06-02T03:26:04.876Z,99.90
2018-06-02T03:28:33.131Z,99.90
2018-06-02T03:31:00.639Z,99.90
2018-06-02T03:33:28.127Z,99.90
2018-06-02T03:35:55.614Z,99.90
2018-06-02T03:38:23.120Z,99.90
2018-06-02T03:40:50.611Z,99.90
2018-06-02T03:43:18.119Z,99.90
2018-06-02T03:45:46.366Z,99.90
2018-06-02T03:48:13.876Z,99.90
2018-06-02T03:50:41.367Z,99.90
2018-06-02T03:53:08.879Z,99.90
2018-06-02T03:55:36.367Z,99.90
2018-06-02T03:58:03.861Z,99.90
2018-06-02T04:00:31.369Z,99.90
2018-06-02T04:02:58.855Z,99.90
2018-06-02T04:05:26.360Z,99.90
2018-06-02T04:07:54.612Z,99.90
2018-06-02T04:10:22.124Z,99.90
2018-06-02T04:12:49.607Z,99.90
2018-06-02T04:15:17.115Z,99.90
2018-06-02T04:17:45.371Z,99.90
2018-06-02T04:20:12.876Z,99.90
2018-06-02T04:22:40.365Z,99.90
2018-06-02T04:25:07.851Z,99.90
2018-06-02T04:27:36.123Z,99.90
2018-06-02T04:30:04.380Z,99.90
2018-06-02T04:32:31.898Z,99.90
2018-06-02T04:34:59.388Z,99.90
2018-06-02T04:37:26.903Z,99.90
2018-06-02T04:39:54.387Z,99.90
2018-06-02T04:42:21.893Z,99.90
2018-06-02T04:44:50.152Z,99.90
2018-06-02T04:47:17.639Z,99.90
2018-06-02T04:49:45.916Z,99.90
2018-06-02T04:52:14.166Z,99.90
2018-06-02T04:54:41.679Z,99.90
2018-06-02T04:57:09.173Z,99.90
2018-06-02T04:59:36.684Z,99.90
2018-06-02T05:02:04.167Z,99.90
2018-06-02T05:04:31.680Z,99.90
2018-06-02T05:06:59.942Z,99.90
2018-06-02T05:09:27.435Z,99.90
2018-06-02T05:11:54.943Z,99.90
2018-06-02T05:14:22.431Z,99.90
2018-06-02T05:16:50.706Z,99.90
2018-06-02T05:19:18.960Z,99.90
2018-06-02T05:21:46.480Z,99.90
2018-06-02T05:24:13.967Z,99.90
2018-06-02T05:26:41.477Z,99.90
2018-06-02T05:29:08.997Z,99.90
2018-06-02T05:31:36.471Z,99.90
2018-06-02T05:34:04.752Z,99.90
2018-06-02T05:36:33.003Z,99.90
2018-06-02T05:39:00.511Z,99.90
2018-06-02T05:41:28.003Z,99.90
2018-06-02T05:43:55.519Z,99.90
2018-06-02T05:46:23.007Z,99.90
2018-06-02T05:48:50.518Z,99.90
2018-06-02T05:51:18.773Z,99.90
2018-06-02T05:53:46.268Z,99.90
2018-06-02T05:56:13.774Z,99.90
2018-06-02T05:58:41.259Z,99.90
2018-06-02T06:01:09.552Z,99.90
2018-06-02T06:03:37.823Z,99.90
2018-06-02T06:06:06.096Z,99.90
2018-06-02T06:08:34.347Z,99.90
2018-06-02T06:11:01.861Z,99.90
2018-06-02T06:13:29.348Z,99.90
2018-06-02T06:15:56.857Z,99.90
2018-06-02T06:18:25.127Z,99.90
2018-06-02T06:20:53.648Z,99.90
2018-06-02T06:23:21.155Z,99.90
2018-06-02T06:25:48.643Z,99.90
2018-06-02T06:28:16.151Z,99.90
2018-06-02T06:30:43.645Z,99.90
2018-06-02T06:33:11.959Z,99.90
2018-06-02T06:35:39.423Z,99.90
2018-06-02T06:38:06.911Z,99.90
2018-06-02T06:40:34.423Z,99.90
2018-06-02T06:43:01.917Z,99.90
2018-06-02T06:45:29.425Z,99.90
2018-06-02T06:47:56.911Z,99.90
2018-06-02T06:50:24.415Z,99.90
2018-06-02T06:52:51.902Z,99.90
2018-06-02T06:55:19.410Z,99.90
2018-06-02T06:57:46.980Z,99.90
2018-06-02T07:00:15.183Z,99.90
2018-06-02T07:02:43.435Z,99.90
2018-06-02T07:05:10.919Z,99.90
2018-06-02T07:07:39.189Z,99.90
2018-06-02T07:10:07.451Z,99.90
2018-06-02T07:12:34.956Z,99.90
2018-06-02T07:15:02.444Z,99.90
2018-06-02T07:17:29.951Z,99.90
2018-06-02T07:19:58.199Z,99.90
2018-06-02T07:22:25.695Z,99.90
2018-06-02T07:24:53.238Z,99.90
2018-06-02T07:27:20.707Z,99.90
2018-06-02T07:29:48.223Z,99.90
2018-06-02T07:32:15.716Z,99.90
2018-06-02T07:34:43.991Z,99.90
2018-06-02T07:37:12.247Z,99.90
2018-06-02T07:39:39.755Z,99.90
2018-06-02T07:42:07.240Z,99.90
2018-06-02T07:44:34.751Z,99.90
2018-06-02T07:47:02.235Z,99.90
2018-06-02T07:49:29.719Z,99.90
2018-06-02T07:51:57.222Z,99.90
2018-06-02T07:54:25.476Z,99.90
2018-06-02T07:56:52.987Z,99.90
2018-06-02T07:59:20.473Z,99.90
2018-06-02T08:01:47.979Z,99.70
2018-06-02T08:04:15.464Z,99.70
2018-06-02T08:06:42.947Z,99.90
2018-06-02T08:09:10.452Z,99.60
2018-06-02T08:11:37.934Z,99.20
2018-06-02T08:14:05.453Z,98.80
2018-06-02T08:16:33.707Z,98.60
2018-06-02T08:19:01.219Z,98.50
2018-06-02T08:21:28.702Z,98.70
2018-06-02T08:23:56.216Z,98.00
2018-06-02T08:26:23.699Z,97.30
2018-06-02T08:28:51.191Z,97.50
2018-06-02T08:31:18.695Z,97.00
2018-06-02T08:33:46.183Z,96.80
2018-06-02T08:36:13.695Z,97.10
2018-06-02T08:38:41.951Z,96.40
2018-06-02T08:41:09.459Z,96.40
2018-06-02T08:43:36.946Z,96.70
2018-06-02T08:46:04.434Z,96.10
2018-06-02T08:48:31.943Z,96.40
2018-06-02T08:50:59.435Z,96.10
2018-06-02T08:53:26.943Z,95.50
2018-06-02T08:55:54.432Z,95.80
2018-06-02T08:58:21.942Z,95.50
2018-06-02T09:00:50.191Z,95.50
2018-06-02T09:03:17.696Z,95.50
2018-06-02T09:05:45.179Z,95.50
2018-06-02T09:08:12.667Z,95.30
2018-06-02T09:10:40.171Z,94.50
2018-06-02T09:13:07.660Z,94.40
2018-06-02T09:15:35.200Z,94.70
2018-06-02T09:18:02.674Z,94.40
2018-06-02T09:20:30.190Z,94.60
2018-06-02T09:22:58.450Z,94.20
2018-06-02T09:25:26.722Z,93.50
2018-06-02T09:27:54.231Z,93.50
2018-06-02T09:30:21.710Z,93.30
2018-06-02T09:32:49.223Z,92.90
2018-06-02T09:35:16.734Z,92.70
2018-06-02T09:37:44.238Z,92.60
2018-06-02T09:40:11.728Z,92.40
2018-06-02T09:42:39.239Z,92.20
2018-06-02T09:45:07.496Z,92.00
2018-06-02T09:47:35.011Z,92.00
2018-06-02T09:50:02.504Z,92.10
2018-06-02T09:52:29.997Z,90.90
2018-06-02T09:54:58.272Z,91.10
2018-06-02T09:57:25.770Z,91.00
2018-06-02T09:59:53.283Z,91.90
2018-06-02T10:02:21.535Z,90.70
2018-06-02T10:04:49.047Z,90.70
2018-06-02T10:07:16.535Z,90.70
2018-06-02T10:09:44.032Z,90.60
2018-06-02T10:12:12.312Z,90.10
2018-06-02T10:14:40.568Z,88.90
2018-06-02T10:17:08.076Z,88.80
2018-06-02T10:19:35.572Z,89.20
2018-06-02T10:22:03.079Z,89.40
2018-06-02T10:24:30.569Z,88.20
2018-06-02T10:26:58.078Z,86.50
2018-06-02T10:29:26.356Z,87.00
2018-06-02T10:31:54.622Z,86.10
2018-06-02T10:34:22.903Z,86.50
2018-06-02T10:36:51.167Z,86.80
2018-06-02T10:39:18.679Z,86.80
2018-06-02T10:41:46.163Z,86.40
2018-06-02T10:44:13.668Z,84.60
2018-06-02T10:46:41.923Z,83.40
2018-06-02T10:49:09.431Z,83.10
2018-06-02T10:51:36.919Z,82.40
2018-06-02T10:54:04.408Z,83.40
2018-06-02T10:56:32.683Z,83.80
2018-06-02T10:59:00.940Z,82.10
2018-06-02T11:01:28.443Z,82.00
2018-06-02T11:03:55.923Z,78.90
2018-06-02T11:06:23.426Z,77.70
2018-06-02T11:08:50.911Z,76.60
2018-06-02T11:11:18.419Z,75.30
2018-06-02T11:13:45.907Z,75.20
2018-06-02T11:16:14.171Z,75.40
2018-06-02T11:18:41.681Z,75.50
2018-06-02T11:21:09.167Z,74.70
2018-06-02T11:23:36.680Z,75.80
2018-06-02T11:26:04.167Z,74.70
2018-06-02T11:28:31.678Z,75.50
2018-06-02T11:30:59.931Z,73.10
2018-06-02T11:33:27.438Z,73.00
2018-06-02T11:35:54.937Z,74.00
2018-06-02T11:38:22.439Z,75.10
2018-06-02T11:40:50.716Z,75.50
2018-06-02T11:43:18.967Z,76.20
2018-06-02T11:45:46.479Z,76.20
2018-06-02T11:48:13.970Z,78.50
2018-06-02T11:50:41.478Z,77.10
2018-06-02T11:53:08.968Z,77.50
2018-06-02T11:55:36.451Z,78.10
2018-06-02T11:58:03.968Z,77.20
2018-06-02T12:00:31.463Z,74.70
2018-06-02T12:02:58.979Z,73.80
2018-06-02T12:05:26.471Z,70.00
2018-06-02T12:07:53.975Z,69.10
2018-06-02T12:10:22.241Z,61.20
2018-06-02T12:12:50.515Z,60.50
2018-06-02T12:15:18.768Z,58.50
2018-06-02T12:17:46.251Z,57.80
2018-06-02T12:20:14.524Z,51.10
2018-06-02T12:22:42.021Z,50.40
2018-06-02T12:25:09.532Z,49.30
2018-06-02T12:27:37.015Z,46.80
2018-06-02T12:30:05.270Z,42.20
2018-06-02T12:32:32.781Z,42.20
2018-06-02T12:35:00.272Z,39.20
2018-06-02T12:37:27.787Z,37.60
2018-06-02T12:39:55.271Z,36.30
2018-06-02T12:42:22.787Z,33.40
2018-06-02T12:44:51.035Z,31.70
2018-06-02T12:47:18.547Z,31.70
2018-06-02T12:49:46.032Z,32.50
2018-06-02T12:52:13.522Z,31.20
2018-06-02T12:54:41.796Z,28.50
2018-06-02T12:57:10.052Z,28.10
2018-06-02T12:59:37.559Z,28.10
2018-06-02T13:02:05.053Z,27.50
2018-06-02T13:04:32.571Z,27.10
2018-06-02T13:07:00.056Z,27.40
2018-06-02T13:09:27.547Z,28.50
2018-06-02T13:11:55.059Z,28.50
2018-06-02T13:14:22.552Z,28.50
2018-06-02T13:16:50.059Z,29.70
2018-06-02T13:19:17.547Z,30.00
2018-06-02T13:21:45.051Z,29.90
2018-06-02T13:24:12.535Z,30.90
2018-06-02T13:26:40.043Z,33.50
2018-06-02T13:29:07.527Z,34.40
2018-06-02T13:31:35.015Z,34.80
2018-06-02T13:34:02.527Z,36.60
2018-06-02T13:36:30.016Z,37.30
2018-06-02T13:38:58.288Z,38.50
2018-06-02T13:41:26.539Z,36.10
2018-06-02T13:43:54.048Z,36.10
2018-06-02T13:46:21.535Z,34.60
2018-06-02T13:48:49.019Z,34.40
2018-06-02T13:51:16.525Z,33.10
2018-06-02T13:53:44.011Z,32.70
2018-06-02T13:56:12.288Z,35.10
2018-06-02T13:58:39.776Z,35.10
2018-06-02T14:01:07.283Z,35.70
2018-06-02T14:03:34.775Z,38.00
2018-06-02T14:06:02.260Z,38.00
2018-06-02T14:08:30.539Z,37.60
2018-06-02T14:10:58.788Z,39.00
2018-06-02T14:13:26.299Z,38.90
2018-06-02T14:15:53.783Z,40.00
2018-06-02T14:18:21.287Z,40.90
2018-06-02T14:20:49.541Z,40.60
2018-06-02T14:23:17.057Z,40.60
2018-06-02T14:25:44.551Z,41.40
2018-06-02T14:28:12.035Z,41.10
2018-06-02T14:30:40.307Z,43.60
2018-06-02T14:33:07.800Z,43.00
2018-06-02T14:35:35.312Z,42.90
2018-06-02T14:38:02.862Z,42.70
2018-06-02T14:40:30.384Z,41.40
2018-06-02T14:42:57.871Z,41.60
2018-06-02T14:45:25.379Z,41.50
2018-06-02T14:47:53.631Z,42.10
2018-06-02T14:50:21.118Z,42.00
2018-06-02T14:52:48.627Z,43.20
2018-06-02T14:55:16.233Z,42.00
2018-06-02T14:57:43.648Z,42.30
2018-06-02T15:00:11.140Z,42.60
2018-06-02T15:02:39.416Z,42.80
2018-06-02T15:05:07.673Z,43.00
2018-06-02T15:07:35.183Z,42.90
2018-06-02T15:10:02.675Z,43.00
2018-06-02T15:12:30.184Z,43.00
2018-06-02T15:14:57.675Z,43.10
2018-06-02T15:17:25.179Z,43.20
2018-06-02T15:19:53.431Z,43.40
2018-06-02T15:22:20.919Z,43.40
2018-06-02T15:24:49.197Z,44.20
2018-06-02T15:27:17.451Z,43.70
2018-06-02T15:29:44.960Z,43.70
2018-06-02T15:32:12.451Z,43.90
2018-06-02T15:34:39.956Z,43.60
2018-06-02T15:37:07.446Z,43.50
2018-06-02T15:39:34.970Z,43.00
2018-06-02T15:42:03.219Z,42.30
2018-06-02T15:44:30.739Z,42.20
2018-06-02T15:46:58.224Z,42.50
2018-06-02T15:49:25.707Z,43.20
2018-06-02T15:51:53.992Z,44.30
2018-06-02T15:54:22.248Z,43.40
2018-06-02T15:56:49.766Z,43.40
2018-06-02T15:59:17.251Z,44.30
2018-06-02T16:01:44.755Z,45.40
2018-06-02T16:04:12.240Z,45.40
2018-06-02T16:06:39.752Z,45.50
2018-06-02T16:09:08.008Z,45.00
2018-06-02T16:11:35.515Z,44.30
2018-06-02T16:14:03.007Z,44.80
2018-06-02T16:16:30.503Z,46.50
2018-06-02T16:18:58.779Z,47.00
2018-06-02T16:21:27.050Z,47.00
2018-06-02T16:23:54.559Z,47.00
2018-06-02T16:26:22.051Z,47.50
2018-06-02T16:28:49.568Z,47.50
2018-06-02T16:31:17.060Z,47.50
2018-06-02T16:33:44.638Z,47.90
2018-06-02T16:36:12.083Z,48.60
2018-06-02T16:38:39.571Z,48.30
2018-06-02T16:41:07.847Z,48.50
2018-06-02T16:43:36.096Z,48.80
2018-06-02T16:46:03.607Z,48.70
2018-06-02T16:48:31.092Z,48.10
2018-06-02T16:50:59.367Z,49.60
2018-06-02T16:53:26.856Z,49.50
2018-06-02T16:55:54.364Z,49.20
2018-06-02T16:58:21.855Z,49.00
2018-06-02T17:00:49.376Z,49.10
2018-06-02T17:03:16.883Z,49.30
2018-06-02T17:05:44.372Z,49.50
2018-06-02T17:08:12.643Z,50.10
2018-06-02T17:10:40.900Z,50.30
2018-06-02T17:13:08.412Z,50.20
2018-06-02T17:15:35.904Z,50.30
2018-06-02T17:18:03.395Z,50.50
2018-06-02T17:20:31.663Z,51.10
2018-06-02T17:22:59.938Z,51.20
2018-06-02T17:25:27.424Z,51.20
2018-06-02T17:27:54.907Z,51.30
2018-06-02T17:30:22.420Z,51.10
2018-06-02T17:32:50.691Z,51.10
2018-06-02T17:35:18.942Z,51.50
2018-06-02T17:37:46.428Z,51.50
2018-06-02T17:40:14.702Z,51.50
2018-06-02T17:42:42.980Z,51.70
2018-06-02T17:45:11.255Z,51.90
2018-06-02T17:47:39.511Z,52.60
2018-06-02T17:50:07.019Z,51.90
2018-06-02T17:52:34.511Z,52.40
2018-06-02T17:55:02.019Z,52.60
2018-06-02T17:57:30.267Z,52.80
2018-06-02T17:59:57.756Z,52.80
2018-06-02T18:02:26.036Z,52.90
2018-06-02T18:04:53.519Z,52.90
2018-06-02T18:07:21.028Z,53.00
2018-06-02T18:09:48.510Z,53.30
2018-06-02T18:12:16.788Z,53.70
2018-06-02T18:14:44.271Z,53.70
2018-06-02T18:17:11.763Z,53.60
2018-06-02T18:19:39.272Z,54.00
2018-06-02T18:22:06.763Z,54.20
2018-06-02T18:24:34.267Z,54.20
2018-06-02T18:27:02.523Z,54.90
2018-06-02T18:29:30.036Z,54.90
2018-06-02T18:31:57.520Z,55.30
2018-06-02T18:34:25.031Z,55.50
2018-06-02T18:36:52.529Z,56.20
2018-06-02T18:39:20.016Z,57.00
2018-06-02T18:41:47.523Z,57.70
2018-06-02T18:44:15.012Z,58.20
2018-06-02T18:46:42.519Z,58.70
2018-06-02T18:49:10.778Z,59.60
2018-06-02T18:51:39.060Z,60.50
2018-06-02T18:54:07.316Z,60.50
2018-06-02T18:56:34.804Z,60.40
2018-06-02T18:59:03.080Z,61.20
2018-06-02T19:01:31.331Z,61.90
2018-06-02T19:03:58.839Z,61.90
2018-06-02T19:06:26.332Z,62.60
2018-06-02T19:08:53.839Z,63.30
2018-06-02T19:11:21.327Z,64.00
2018-06-02T19:13:48.835Z,64.30
2018-06-02T19:16:17.082Z,65.60
2018-06-02T19:18:44.574Z,65.60
2018-06-02T19:21:12.847Z,66.50
2018-06-02T19:23:40.364Z,66.50
2018-06-02T19:26:07.875Z,67.00
2018-06-02T19:28:36.132Z,68.00
2018-06-02T19:31:03.643Z,67.90
2018-06-02T19:33:31.136Z,68.40
2018-06-02T19:35:58.650Z,69.00
2018-06-02T19:38:26.149Z,69.50
2018-06-02T19:40:53.954Z,70.10
2018-06-02T19:43:21.419Z,70.80
2018-06-02T19:45:48.904Z,71.10
2018-06-02T19:48:16.440Z,71.70
2018-06-02T19:50:44.676Z,72.90
2018-06-02T19:53:12.192Z,72.80
2018-06-02T19:55:39.683Z,73.10
2018-06-02T19:58:07.190Z,73.50
2018-06-02T20:00:34.684Z,73.50
2018-06-02T20:03:02.168Z,73.60
2018-06-02T20:05:29.683Z,72.90
2018-06-02T20:07:57.251Z,73.20
2018-06-02T20:10:24.698Z,73.00
2018-06-02T20:12:52.187Z,73.10
2018-06-02T20:15:20.462Z,74.30
2018-06-02T20:17:48.719Z,74.60
2018-06-02T20:20:16.204Z,74.60
2018-06-02T20:22:43.717Z,75.30
2018-06-02T20:25:11.208Z,76.10
2018-06-02T20:27:38.719Z,76.70
2018-06-02T20:30:06.203Z,77.20
2018-06-02T20:32:33.716Z,77.50
2018-06-02T20:35:01.968Z,77.40
2018-06-02T20:37:29.456Z,77.30
2018-06-02T20:39:57.735Z,78.00
2018-06-02T20:42:26.045Z,78.80
2018-06-02T20:44:53.510Z,78.70
2018-06-02T20:47:20.996Z,78.90
2018-06-02T20:49:48.512Z,79.20
2018-06-02T20:52:16.003Z,79.60
2018-06-02T20:54:43.499Z,79.70
2018-06-02T20:57:11.807Z,80.90
2018-06-02T20:59:39.308Z,80.90
2018-06-02T21:02:06.811Z,81.60
2018-06-02T21:04:34.299Z,82.30
2018-06-02T21:07:01.813Z,83.00
2018-06-02T21:09:30.063Z,84.70
2018-06-02T21:11:57.548Z,84.70
2018-06-02T21:14:25.820Z,85.50
2018-06-02T21:16:54.072Z,85.80
2018-06-02T21:19:21.591Z,85.80
2018-06-02T21:21:49.080Z,86.50
2018-06-02T21:24:16.588Z,86.80
2018-06-02T21:26:44.078Z,87.40
2018-06-02T21:29:11.567Z,88.10
2018-06-02T21:31:39.076Z,88.70
2018-06-02T21:34:06.559Z,88.80
2018-06-02T21:36:34.072Z,89.30
2018-06-02T21:39:02.332Z,90.50
2018-06-02T21:41:30.617Z,91.00
2018-06-02T21:43:58.875Z,91.90
2018-06-02T21:46:26.371Z,91.90
2018-06-02T21:48:53.874Z,92.30
2018-06-02T21:51:21.363Z,92.70
2018-06-02T21:53:49.640Z,93.60
2018-06-02T21:56:17.891Z,93.10
2018-06-02T21:58:45.395Z,93.00
2018-06-02T22:01:12.879Z,93.10
2018-06-02T22:03:40.363Z,92.90
2018-06-02T22:06:07.874Z,93.30
2018-06-02T22:08:35.362Z,93.30
2018-06-02T22:11:02.878Z,93.70
2018-06-02T22:13:30.394Z,94.00
2018-06-02T22:15:57.899Z,94.20
2018-06-02T22:18:26.155Z,94.40
2018-06-02T22:20:54.407Z,94.00
2018-06-02T22:23:21.915Z,93.90
2018-06-02T22:25:49.407Z,94.10
2018-06-02T22:28:16.922Z,94.00
2018-06-02T22:30:45.175Z,94.30
2018-06-02T22:33:12.683Z,94.20
2018-06-02T22:35:40.171Z,94.30
2018-06-02T22:38:07.659Z,94.30
2018-06-02T22:40:35.935Z,94.60
2018-06-02T22:43:04.187Z,94.70
2018-06-02T22:45:31.695Z,94.60
2018-06-02T22:47:59.179Z,94.80
2018-06-02T22:50:26.687Z,94.90
2018-06-02T22:52:54.939Z,95.20
2018-06-02T22:55:22.433Z,95.20
2018-06-02T22:57:50.711Z,95.40
2018-06-02T23:00:19.700Z,95.60
2018-06-02T23:02:47.975Z,95.70
2018-06-02T23:05:16.231Z,95.70
2018-06-02T23:07:43.737Z,95.70
2018-06-02T23:10:11.231Z,95.80
2018-06-02T23:12:38.744Z,96.00
2018-06-02T23:15:06.232Z,96.00
2018-06-02T23:17:33.739Z,96.00
2018-06-02T23:20:01.987Z,96.30
2018-06-02T23:22:38.443Z,96.20
2018-06-02T23:25:06.787Z,96.70
2018-06-02T23:27:34.274Z,96.30
2018-06-02T23:30:01.790Z,96.50
2018-06-02T23:32:29.282Z,96.70
2018-06-02T23:34:56.791Z,96.70
2018-06-02T23:37:25.043Z,96.70
2018-06-02T23:39:52.551Z,96.70
2018-06-02T23:42:20.035Z,96.70
2018-06-02T23:44:47.539Z,96.90
2018-06-02T23:47:15.024Z,97.00
2018-06-02T23:49:42.511Z,97.10
2018-06-02T23:52:10.018Z,97.10
2018-06-02T23:54:38.272Z,97.70
2018-06-02T23:57:05.785Z,97.30
2018-06-02T23:59:33.278Z,97.40
